Time;durP1;ratioP1;P1;durP2;ratioP2;P2;SDS_P1;SDS_P2;PMS_P1;PMS_P2;Temp;Humidity;BMP_temperature;BMP_pressure;BME280_temperature;BME280_humidity;BME280_pressure;Samples;Min_cycle;Max_cycle;Signal;HPM_P1;HPM_P2
2022/01/11 00:01:09;;;;;;;40.40;15.90;;;8.90;99.90;;;;;;5028336;28;20416;-65
2022/01/11 00:03:38;;;;;;;44.42;15.73;;;8.90;99.90;;;;;;5022101;28;20045;-64
2022/01/11 00:06:50;;;;;;;47.00;16.58;;;9.00;99.90;;;;;;5029720;28;20060;-65
2022/01/11 00:09:01;;;;;;;48.55;15.77;;;8.90;99.90;;;;;;5025045;28;20523;-65
2022/01/11 00:11:30;;;;;;;49.35;17.20;;;9.00;99.90;;;;;;5029787;28;20056;-64
2022/01/11 00:13:57;;;;;;;41.08;16.42;;;9.00;99.90;;;;;;5028894;28;20057;-65
2022/01/11 00:16:25;;;;;;;40.55;15.60;;;9.00;99.90;;;;;;5029550;28;20456;-65
2022/01/11 00:18:53;;;;;;;45.00;16.75;;;9.00;99.90;;;;;;5023363;28;20412;-65
2022/01/11 00:21:21;;;;;;;42.08;15.80;;;9.00;99.90;;;;;;5029279;28;20080;-64
2022/01/11 00:26:35;;;;;;;44.13;17.15;;;9.00;99.90;;;;;;5029256;28;20052;-67
2022/01/11 00:29:03;;;;;;;38.70;14.57;;;9.10;99.90;;;;;;5028073;28;20053;-65
2022/01/11 00:31:34;;;;;;;45.00;16.08;;;9.10;99.90;;;;;;5028180;28;20124;-65
2022/01/11 00:34:03;;;;;;;42.25;16.50;;;9.10;99.90;;;;;;5022186;28;20042;-67
2022/01/11 00:36:41;;;;;;;43.47;16.10;;;9.10;99.90;;;;;;5028775;28;20042;-64
2022/01/11 00:39:11;;;;;;;38.70;15.27;;;9.10;99.90;;;;;;5060591;28;20049;-65
2022/01/11 00:41:40;;;;;;;43.05;16.50;;;9.10;99.90;;;;;;5027916;28;20045;-64
2022/01/11 00:44:09;;;;;;;43.05;16.00;;;9.10;99.90;;;;;;5028492;28;20172;-65
2022/01/11 00:46:36;;;;;;;40.65;14.27;;;9.10;99.90;;;;;;5029070;28;20053;-64
2022/01/11 00:49:04;;;;;;;41.47;15.35;;;9.10;99.90;;;;;;5024612;28;20056;-68
2022/01/11 01:45:44;;;;;;;41.17;16.45;;;9.10;99.90;;;;;;5008353;28;20053;-64
2022/01/11 01:48:13;;;;;;;44.50;16.95;;;9.10;99.90;;;;;;5053894;28;20038;-66
2022/01/11 01:50:42;;;;;;;39.92;15.70;;;9.10;99.90;;;;;;5026794;28;20046;-68
2022/01/11 01:53:13;;;;;;;41.92;17.55;;;9.10;99.90;;;;;;5027820;28;20045;-65
2022/01/11 01:55:43;;;;;;;41.42;16.60;;;9.10;99.90;;;;;;5026950;28;20045;-67
2022/01/11 01:58:11;;;;;;;;;;;9.10;99.90;;;;;;5026769;28;20049;-68
2022/01/11 02:00:42;;;;;;;40.90;15.55;;;9.10;99.90;;;;;;5026702;28;20367;-68
2022/01/11 02:03:15;;;;;;;47.38;16.02;;;9.10;99.90;;;;;;5026410;28;20042;-69
2022/01/11 02:05:44;;;;;;;42.33;15.10;;;9.10;99.90;;;;;;5026889;28;20076;-68
2022/01/11 02:08:13;;;;;;;44.83;16.23;;;9.10;99.90;;;;;;5027634;28;20053;-65
2022/01/11 02:10:41;;;;;;;41.88;15.68;;;9.10;99.90;;;;;;5026707;28;20045;-65
2022/01/11 02:13:08;;;;;;;37.25;14.20;;;9.10;99.90;;;;;;5026460;28;20401;-65
2022/01/11 02:15:37;;;;;;;43.78;15.02;;;9.10;99.90;;;;;;5026623;28;20418;-65
2022/01/11 02:18:21;;;;;;;48.58;15.07;;;9.10;99.90;;;;;;5023061;28;20038;-66
2022/01/11 02:20:51;;;;;;;37.15;13.65;;;9.10;99.90;;;;;;5007376;28;20057;-66
2022/01/11 02:23:28;;;;;;;39.92;14.85;;;9.10;99.90;;;;;;5012375;28;20037;-65
2022/01/11 02:25:58;;;;;;;38.20;14.00;;;9.10;99.90;;;;;;5030369;28;20053;-65
2022/01/11 02:28:28;;;;;;;40.60;14.63;;;9.10;99.90;;;;;;5013617;28;20041;-65
2022/01/11 02:30:57;;;;;;;37.33;12.87;;;9.10;99.90;;;;;;5027569;28;20310;-65
2022/01/11 02:33:35;;;;;;;39.03;13.93;;;9.10;99.90;;;;;;5013549;28;20499;-65
2022/01/11 02:36:32;;;;;;;40.80;13.52;;;9.10;99.90;;;;;;5013559;28;20050;-65
2022/01/11 02:39:29;;;;;;;38.08;13.20;;;9.10;99.90;;;;;;5033655;28;20045;-65
2022/01/11 02:42:06;;;;;;;39.20;13.07;;;9.10;99.90;;;;;;5033403;28;20056;-65
2022/01/11 02:44:38;;;;;;;38.95;14.60;;;9.10;99.90;;;;;;5033028;28;20058;-65
2022/01/11 02:47:08;;;;;;;33.92;11.18;;;9.10;99.90;;;;;;5031569;28;20045;-65
2022/01/11 02:49:37;;;;;;;33.90;11.07;;;9.10;99.90;;;;;;5033306;28;20044;-64
2022/01/11 02:52:19;;;;;;;35.17;12.63;;;9.10;99.90;;;;;;5033149;28;20405;-66
2022/01/11 02:55:14;;;;;;;33.08;11.25;;;9.10;99.90;;;;;;5033050;28;20045;-65
2022/01/11 02:57:44;;;;;;;29.58;10.82;;;9.20;99.90;;;;;;5032427;28;20037;-65
2022/01/11 03:00:20;;;;;;;38.28;11.52;;;9.20;99.90;;;;;;5032919;28;20041;-65
2022/01/11 03:02:48;;;;;;;23.45;7.22;;;9.20;99.90;;;;;;5033020;28;20045;-65
2022/01/11 03:05:22;;;;;;;20.10;7.93;;;9.20;99.90;;;;;;5032929;28;20041;-66
2022/01/11 03:07:51;;;;;;;17.58;6.45;;;9.20;99.90;;;;;;5032297;28;20476;-65
2022/01/11 03:10:31;;;;;;;20.80;6.60;;;9.30;99.90;;;;;;5032995;28;20045;-66
2022/01/11 03:13:03;;;;;;;18.95;6.57;;;9.30;99.90;;;;;;5032966;28;20038;-65
2022/01/11 03:15:32;;;;;;;14.73;6.10;;;9.30;99.90;;;;;;5032912;28;20037;-65
2022/01/11 03:18:05;;;;;;;16.17;6.97;;;9.30;99.90;;;;;;5032642;28;20046;-66
2022/01/11 03:20:38;;;;;;;18.80;8.02;;;9.30;99.90;;;;;;5031748;28;20048;-65
2022/01/11 03:23:07;;;;;;;21.50;6.75;;;9.30;99.90;;;;;;5032385;28;20497;-66
2022/01/11 03:25:35;;;;;;;17.70;6.83;;;9.30;99.90;;;;;;5032749;28;20507;-65
2022/01/11 03:28:04;;;;;;;21.90;8.35;;;9.20;99.90;;;;;;5032633;28;20057;-65
2022/01/11 03:30:33;;;;;;;22.80;10.40;;;9.20;99.90;;;;;;5032688;28;20052;-67
2022/01/11 03:33:01;;;;;;;21.98;9.13;;;9.20;99.90;;;;;;5032203;28;20046;-66
2022/01/11 03:35:32;;;;;;;26.90;10.15;;;9.20;99.90;;;;;;5032087;28;20481;-66
2022/01/11 03:38:03;;;;;;;21.23;8.38;;;9.20;99.90;;;;;;5016058;28;20420;-66
2022/01/11 03:40:33;;;;;;;29.42;8.95;;;9.10;99.90;;;;;;5032416;28;20049;-66
2022/01/11 03:43:04;;;;;;;28.63;10.13;;;9.10;99.90;;;;;;5032217;28;20505;-66
2022/01/11 03:45:33;;;;;;;27.98;8.82;;;9.00;99.90;;;;;;5032268;28;20048;-66
2022/01/11 03:48:08;;;;;;;20.08;7.82;;;9.00;99.90;;;;;;5032345;28;20053;-66
2022/01/11 03:50:36;;;;;;;28.17;9.50;;;9.00;99.90;;;;;;5031736;28;20490;-65
2022/01/11 03:53:14;;;;;;;23.95;8.10;;;9.00;99.90;;;;;;5031788;28;20056;-65
2022/01/11 03:58:21;;;;;;;21.67;6.03;;;8.90;99.90;;;;;;5032018;28;20056;-66
2022/01/11 04:00:53;;;;;;;15.50;5.47;;;8.80;99.90;;;;;;5031938;28;20046;-66
2022/01/11 04:03:22;;;;;;;27.08;5.80;;;8.80;99.90;;;;;;5031799;28;20053;-65
2022/01/11 04:05:50;;;;;;;19.90;5.60;;;8.80;99.90;;;;;;5031843;28;20056;-66
2022/01/11 04:08:22;;;;;;;12.63;5.43;;;8.80;99.90;;;;;;5015880;28;20060;-66
2022/01/11 04:10:50;;;;;;;23.08;6.75;;;8.70;99.90;;;;;;5031869;28;20045;-66
2022/01/11 04:13:19;;;;;;;25.67;6.30;;;8.70;99.90;;;;;;5031584;28;20618;-65
2022/01/11 04:15:47;;;;;;;20.83;4.88;;;8.70;99.90;;;;;;5015273;28;20054;-66
2022/01/11 04:18:15;;;;;;;31.02;5.80;;;8.70;99.90;;;;;;5031793;28;20041;-66
2022/01/11 04:20:43;;;;;;;21.08;5.28;;;8.60;99.90;;;;;;5031253;28;20045;-66
2022/01/11 04:23:12;;;;;;;33.47;5.32;;;8.60;99.90;;;;;;5031473;28;20060;-66
2022/01/11 04:25:41;;;;;;;31.55;5.82;;;8.60;99.90;;;;;;5031609;28;20362;-66
2022/01/11 04:28:09;;;;;;;21.23;4.85;;;8.60;99.90;;;;;;5031546;28;20052;-65
2022/01/11 04:30:37;;;;;;;22.10;5.53;;;8.60;99.90;;;;;;5031305;28;20041;-66
2022/01/11 04:33:05;;;;;;;27.70;4.38;;;8.50;99.90;;;;;;5011397;28;20037;-66
2022/01/11 04:35:34;;;;;;;17.23;4.65;;;8.50;99.90;;;;;;5011563;28;20478;-67
2022/01/11 04:38:03;;;;;;;24.65;5.00;;;8.50;99.90;;;;;;5011459;28;20045;-66
2022/01/11 04:40:31;;;;;;;26.25;4.88;;;8.50;99.90;;;;;;5011208;28;20393;-67
2022/01/11 04:42:58;;;;;;;17.15;5.10;;;8.50;99.90;;;;;;5014754;28;20053;-66
2022/01/11 04:45:26;;;;;;;22.45;4.60;;;8.50;99.90;;;;;;5014912;28;20054;-67
2022/01/11 04:47:56;;;;;;;28.58;7.10;;;8.50;99.90;;;;;;5030336;28;20111;-65
2022/01/11 04:50:29;;;;;;;26.77;5.30;;;8.50;99.90;;;;;;5031019;28;20037;-66
2022/01/11 04:52:57;;;;;;;28.80;6.85;;;8.50;99.90;;;;;;5031915;28;20049;-66
2022/01/11 04:55:29;;;;;;;31.52;5.78;;;8.50;99.90;;;;;;5030955;28;20068;-66
2022/01/11 04:57:57;;;;;;;27.17;6.07;;;8.50;99.90;;;;;;5031237;28;20050;-66
2022/01/11 05:00:25;;;;;;;34.22;6.35;;;8.50;99.90;;;;;;5030748;28;20053;-65
2022/01/11 05:02:57;;;;;;;31.13;5.78;;;8.50;99.90;;;;;;5030529;28;20052;-66
2022/01/11 05:05:29;;;;;;;24.98;6.05;;;8.50;99.90;;;;;;5030885;28;20046;-66
2022/01/11 05:07:58;;;;;;;33.65;6.10;;;8.40;99.90;;;;;;5030987;28;20053;-66
2022/01/11 05:10:26;;;;;;;39.35;6.40;;;8.40;99.90;;;;;;5030666;28;20049;-66
2022/01/11 05:12:54;;;;;;;21.00;5.57;;;8.50;99.90;;;;;;5030555;28;20412;-66
2022/01/11 05:15:28;;;;;;;23.50;5.22;;;8.40;99.90;;;;;;5030702;28;20041;-66
2022/01/11 05:17:57;;;;;;;24.85;5.00;;;8.40;99.90;;;;;;5030734;28;20049;-66
2022/01/11 05:20:26;;;;;;;25.67;5.72;;;8.40;99.90;;;;;;5014197;28;20056;-66
2022/01/11 05:22:54;;;;;;;24.80;5.47;;;8.40;99.90;;;;;;5063432;28;20056;-66
2022/01/11 05:25:24;;;;;;;39.17;6.68;;;8.40;99.90;;;;;;5030465;28;20045;-66
2022/01/11 05:27:52;;;;;;;25.80;7.03;;;8.40;99.90;;;;;;5030575;28;20108;-66
2022/01/11 05:30:20;;;;;;;42.22;6.80;;;8.40;99.90;;;;;;5030492;28;20513;-66
2022/01/11 05:32:48;;;;;;;44.15;7.32;;;8.40;99.90;;;;;;5030147;28;20057;-66
2022/01/11 05:35:18;;;;;;;36.28;6.68;;;8.30;99.90;;;;;;5031562;28;20052;-65
2022/01/11 05:37:47;;;;;;;35.85;6.47;;;8.40;99.90;;;;;;5030259;28;20041;-65
2022/01/11 05:40:16;;;;;;;41.13;6.90;;;8.40;99.90;;;;;;5030439;28;20048;-67
2022/01/11 05:42:46;;;;;;;32.20;5.93;;;8.40;99.90;;;;;;5013486;28;20313;-65
2022/01/11 05:45:13;;;;;;;33.58;5.80;;;8.40;99.90;;;;;;5031188;28;20048;-65
2022/01/11 05:47:42;;;;;;;25.00;5.20;;;8.30;99.90;;;;;;5006060;28;20046;-66
2022/01/11 05:50:13;;;;;;;23.08;5.10;;;8.30;99.90;;;;;;5007371;28;20046;-65
2022/01/11 05:52:42;;;;;;;31.92;5.18;;;8.30;99.90;;;;;;5007465;28;20050;-67
2022/01/11 05:55:12;;;;;;;18.13;4.47;;;8.30;99.90;;;;;;5026876;28;20038;-66
2022/01/11 05:57:41;;;;;;;28.05;7.22;;;8.30;99.90;;;;;;5027217;28;20053;-67
2022/01/11 06:00:14;;;;;;;28.30;5.55;;;8.30;99.90;;;;;;5031125;28;20237;-65
2022/01/11 06:02:46;;;;;;;30.15;6.28;;;8.30;99.90;;;;;;5017125;28;20052;-66
2022/01/11 06:05:25;;;;;;;;;;;8.20;99.90;;;;;;5008276;28;20068;-67
2022/01/11 06:07:53;;;;;;;37.78;5.60;;;8.20;99.90;;;;;;5015926;28;19932;-66
2022/01/11 06:10:21;;;;;;;23.52;5.18;;;8.20;99.90;;;;;;5027721;28;20499;-66
2022/01/11 06:12:49;;;;;;;32.00;5.80;;;8.10;99.90;;;;;;5026897;28;20515;-66
2022/01/11 06:15:18;;;;;;;31.70;5.78;;;8.10;99.90;;;;;;5008817;28;20058;-66
2022/01/11 06:17:46;;;;;;;27.10;6.18;;;8.10;99.90;;;;;;5011089;28;20045;-66
2022/01/11 06:20:14;;;;;;;34.50;6.25;;;8.10;99.90;;;;;;5007809;28;20054;-66
2022/01/11 06:22:42;;;;;;;30.27;5.93;;;8.10;99.90;;;;;;5017136;28;20665;-66
2022/01/11 06:25:10;;;;;;;29.30;5.55;;;8.10;99.90;;;;;;5030339;28;20034;-66
2022/01/11 06:27:40;;;;;;;24.75;4.82;;;8.10;99.90;;;;;;5030264;28;20538;-67
2022/01/11 06:30:15;;;;;;;23.75;5.13;;;8.10;99.90;;;;;;5030411;28;20040;-66
2022/01/11 06:32:44;;;;;;;28.95;5.65;;;8.10;99.90;;;;;;5027308;28;20481;-66
2022/01/11 06:35:17;;;;;;;23.23;5.72;;;8.10;99.90;;;;;;5030058;28;20377;-67
2022/01/11 06:37:48;;;;;;;34.65;6.38;;;8.10;99.90;;;;;;5030027;28;20049;-66
2022/01/11 06:40:19;;;;;;;34.20;5.57;;;8.10;99.90;;;;;;5030027;28;20041;-65
2022/01/11 06:42:50;;;;;;;32.88;6.47;;;8.10;99.90;;;;;;5027387;28;20052;-66
2022/01/11 06:45:21;;;;;;;39.83;9.57;;;8.10;99.90;;;;;;5030056;28;20050;-66
2022/01/11 06:47:51;;;;;;;45.38;9.20;;;8.00;99.90;;;;;;5024052;28;20053;-65
2022/01/11 06:50:20;;;;;;;39.30;7.87;;;8.00;99.90;;;;;;5014399;28;20370;-66
2022/01/11 06:52:49;;;;;;;49.80;9.30;;;8.00;99.90;;;;;;5016411;28;20536;-66
2022/01/11 06:55:17;;;;;;;32.65;6.80;;;8.10;99.90;;;;;;5029416;28;20052;-66
2022/01/11 06:57:46;;;;;;;36.92;6.20;;;8.10;99.90;;;;;;5027785;28;20049;-66
2022/01/11 07:00:17;;;;;;;43.85;8.75;;;8.10;99.90;;;;;;5026564;28;20661;-65
2022/01/11 07:02:50;;;;;;;44.97;9.07;;;8.00;99.90;;;;;;5024308;28;20061;-68
2022/01/11 07:05:38;;;;;;;36.60;9.43;;;8.00;99.90;;;;;;5011116;28;20097;-66
2022/01/11 07:08:06;;;;;;;51.92;10.75;;;8.00;99.90;;;;;;5018314;28;20053;-66
2022/01/11 07:10:34;;;;;;;57.83;12.02;;;8.00;99.90;;;;;;5028686;28;20088;-66
2022/01/11 07:13:02;;;;;;;47.17;9.60;;;8.00;99.90;;;;;;5020746;28;20050;-66
2022/01/11 07:15:33;;;;;;;62.15;10.88;;;8.00;99.90;;;;;;5030703;28;20046;-68
2022/01/11 07:18:09;;;;;;;51.35;10.40;;;8.00;99.90;;;;;;5027131;28;20038;-66
2022/01/11 07:20:42;;;;;;;54.47;11.27;;;8.00;99.90;;;;;;5009698;28;20263;-67
2022/01/11 07:23:14;;;;;;;64.72;10.68;;;7.90;99.90;;;;;;5020711;28;20050;-68
2022/01/11 07:25:42;;;;;;;55.60;10.52;;;7.90;99.90;;;;;;5029317;28;20048;-66
2022/01/11 07:28:14;;;;;;;67.25;10.82;;;7.90;99.90;;;;;;5028951;28;20072;-67
2022/01/11 07:30:42;;;;;;;63.00;12.07;;;7.90;99.90;;;;;;5026977;28;20045;-66
2022/01/11 07:33:10;;;;;;;60.00;10.80;;;8.00;99.90;;;;;;5026876;28;20385;-66
2022/01/11 07:35:38;;;;;;;56.28;11.15;;;7.90;99.90;;;;;;5050849;28;20049;-66
2022/01/11 07:38:06;;;;;;;73.20;14.40;;;7.90;99.90;;;;;;5029196;28;20120;-66
2022/01/11 07:40:36;;;;;;;65.13;11.00;;;7.90;99.90;;;;;;5029150;28;20388;-66
2022/01/11 07:43:15;;;;;;;59.47;12.95;;;7.90;99.90;;;;;;5028320;28;20050;-66
2022/01/11 07:45:52;;;;;;;57.55;13.30;;;7.90;99.90;;;;;;5028735;28;20052;-66
2022/01/11 07:48:24;;;;;;;55.20;10.73;;;7.90;99.90;;;;;;5024855;28;20046;-66
2022/01/11 07:50:58;;;;;;;61.20;11.57;;;7.90;99.90;;;;;;5024295;28;20041;-66
2022/01/11 07:53:27;;;;;;;58.33;10.90;;;7.90;99.90;;;;;;5028265;28;20053;-66
2022/01/11 07:56:00;;;;;;;55.53;13.10;;;7.90;99.90;;;;;;5028463;28;20068;-66
2022/01/11 07:58:31;;;;;;;67.97;12.30;;;7.90;99.90;;;;;;5023024;28;20056;-67
2022/01/11 08:00:59;;;;;;;57.40;13.13;;;7.80;99.90;;;;;;5028207;28;20435;-66
2022/01/11 08:03:36;;;;;;;54.83;12.02;;;7.90;99.90;;;;;;5018051;28;20037;-65
2022/01/11 08:06:14;;;;;;;66.45;13.80;;;7.90;99.90;;;;;;5008614;28;20370;-66
2022/01/11 08:08:45;;;;;;;66.47;13.70;;;7.90;99.90;;;;;;5015933;28;20080;-66
2022/01/11 08:11:13;;;;;;;67.15;13.48;;;7.90;99.90;;;;;;5004787;28;20042;-66
2022/01/11 08:13:42;;;;;;;77.35;13.50;;;7.90;99.90;;;;;;5021253;28;20045;-70
2022/01/11 08:16:11;;;;;;;58.72;12.48;;;7.90;99.90;;;;;;5027762;28;20068;-66
2022/01/11 08:18:38;;;;;;;73.22;13.63;;;8.00;99.90;;;;;;5044303;28;20396;-68
2022/01/11 08:21:06;;;;;;;66.93;14.60;;;8.00;99.90;;;;;;5026405;28;20072;-66
2022/01/11 08:23:35;;;;;;;58.17;14.40;;;7.90;99.90;;;;;;5026250;28;20049;-66
2022/01/11 08:26:05;;;;;;;67.35;16.30;;;7.90;99.90;;;;;;5024195;28;20069;-66
2022/01/11 08:28:33;;;;;;;69.95;13.85;;;7.90;99.90;;;;;;5009546;28;20072;-66
2022/01/11 08:31:04;;;;;;;59.78;13.65;;;7.90;99.90;;;;;;5009349;28;20049;-66
2022/01/11 08:33:38;;;;;;;56.05;12.52;;;7.90;99.90;;;;;;5009218;28;20060;-66
2022/01/11 08:36:10;;;;;;;65.30;14.07;;;7.90;99.90;;;;;;5027786;28;20049;-66
2022/01/11 08:38:39;;;;;;;63.05;14.13;;;7.90;99.90;;;;;;5060784;28;20057;-68
2022/01/11 08:41:09;;;;;;;72.10;14.68;;;7.90;99.90;;;;;;5024167;28;20046;-66
2022/01/11 08:43:38;;;;;;;71.45;15.57;;;7.90;99.90;;;;;;5021560;28;20401;-66
2022/01/11 08:46:09;;;;;;;58.15;16.77;;;7.90;99.90;;;;;;5008318;28;20045;-66
2022/01/11 08:49:00;;;;;;;;;;;7.90;99.90;;;;;;5024012;28;20045;-66
2022/01/11 08:51:29;;;;;;;52.53;15.65;;;7.90;99.90;;;;;;5026021;28;20540;-66
2022/01/11 08:54:01;;;;;;;52.63;17.60;;;7.90;99.90;;;;;;5027046;28;20097;-66
2022/01/11 08:56:31;;;;;;;71.53;17.80;;;7.90;99.90;;;;;;5026460;28;20531;-66
2022/01/11 08:58:59;;;;;;;65.50;17.23;;;7.90;99.90;;;;;;5027515;28;20492;-66
2022/01/11 09:01:34;;;;;;;52.00;16.50;;;7.90;99.90;;;;;;5027028;28;20298;-67
2022/01/11 09:04:08;;;;;;;74.32;23.90;;;7.90;99.90;;;;;;5043187;28;20064;-66
2022/01/11 09:06:53;;;;;;;77.10;22.30;;;7.90;99.90;;;;;;5043667;28;20056;-67
2022/01/11 09:09:21;;;;;;;67.53;23.35;;;7.90;99.90;;;;;;5027342;28;20064;-67
2022/01/11 09:11:51;;;;;;;56.83;19.00;;;7.80;99.90;;;;;;5024105;28;20425;-67
2022/01/11 09:14:19;;;;;;;64.63;19.80;;;7.80;99.90;;;;;;5060094;28;20485;-66
2022/01/11 09:16:48;;;;;;;51.13;18.25;;;7.90;99.90;;;;;;5027053;28;20430;-66
2022/01/11 09:19:18;;;;;;;53.53;17.27;;;7.90;99.90;;;;;;5026896;28;20053;-67
2022/01/11 09:21:47;;;;;;;55.83;15.85;;;7.90;99.90;;;;;;5027389;28;20052;-66
2022/01/11 09:24:19;;;;;;;46.90;13.48;;;7.80;99.90;;;;;;5010952;28;20054;-66
2022/01/11 09:26:49;;;;;;;46.28;13.75;;;7.80;99.90;;;;;;5026248;28;20057;-66
2022/01/11 09:29:20;;;;;;;58.45;13.57;;;7.80;99.90;;;;;;5059769;28;20045;-66
2022/01/11 09:31:56;;;;;;;49.97;12.48;;;7.80;99.90;;;;;;5044332;28;20046;-66
2022/01/11 09:34:26;;;;;;;57.00;13.70;;;7.80;99.90;;;;;;5026896;28;20052;-66
2022/01/11 09:36:56;;;;;;;40.23;13.37;;;7.90;99.90;;;;;;5024773;28;20504;-67
2022/01/11 09:39:25;;;;;;;44.15;11.60;;;7.80;99.90;;;;;;5060553;28;20052;-67
2022/01/11 09:41:59;;;;;;;45.60;12.07;;;7.80;99.90;;;;;;5028758;28;20049;-67
2022/01/11 09:44:29;;;;;;;47.95;13.27;;;7.80;99.90;;;;;;5008198;28;20053;-69
2022/01/11 09:46:56;;;;;;;38.85;11.70;;;7.90;99.90;;;;;;5047093;28;20049;-66
2022/01/11 09:49:26;;;;;;;47.92;13.30;;;7.80;99.90;;;;;;5027411;28;20467;-67
2022/01/11 09:52:00;;;;;;;48.47;12.20;;;7.90;99.90;;;;;;5026680;28;20057;-68
2022/01/11 09:54:28;;;;;;;38.72;9.27;;;7.80;99.90;;;;;;5026767;28;20424;-66
2022/01/11 09:56:56;;;;;;;48.33;10.35;;;7.80;99.90;;;;;;5058190;28;20050;-67
2022/01/11 09:59:24;;;;;;;31.67;8.52;;;7.70;99.90;;;;;;5025060;28;20049;-66
2022/01/11 10:02:12;;;;;;;38.63;9.40;;;7.70;99.90;;;;;;5027757;28;20049;-67
2022/01/11 10:04:59;;;;;;;38.53;8.50;;;7.60;99.90;;;;;;5010102;28;20057;-66
2022/01/11 10:07:56;;;;;;;46.38;9.57;;;7.60;99.90;;;;;;5009495;28;20509;-67
2022/01/11 10:10:26;;;;;;;33.40;7.18;;;7.60;99.90;;;;;;5026621;28;20053;-67
2022/01/11 10:13:03;;;;;;;33.00;7.75;;;7.60;99.90;;;;;;4999933;28;20037;-69
2022/01/11 10:15:35;;;;;;;31.98;7.70;;;7.60;99.90;;;;;;5026386;28;20515;-66
2022/01/11 10:18:36;;;;;;;39.70;8.50;;;7.60;99.90;;;;;;5026705;28;20056;-69
2022/01/11 10:21:38;;;;;;;32.50;8.82;;;7.60;99.90;;;;;;5025893;28;20041;-66
2022/01/11 10:24:42;;;;;;;31.60;6.40;;;7.60;99.90;;;;;;5026227;28;20041;-66
2022/01/11 10:27:17;;;;;;;29.90;5.95;;;7.60;99.90;;;;;;5007580;28;20041;-67
2022/01/11 10:29:51;;;;;;;30.48;5.60;;;7.60;99.90;;;;;;5026587;28;20064;-66
2022/01/11 10:32:33;;;;;;;33.60;6.53;;;7.60;99.90;;;;;;5026515;28;20052;-66
2022/01/11 10:35:10;;;;;;;35.03;6.85;;;7.60;99.90;;;;;;5009854;28;20046;-69
2022/01/11 10:37:55;;;;;;;27.38;7.15;;;7.70;99.90;;;;;;5026428;28;20068;-71
2022/01/11 10:40:34;;;;;;;37.28;7.28;;;7.70;99.90;;;;;;5026173;28;20526;-65
2022/01/11 10:43:17;;;;;;;39.45;6.82;;;7.80;99.90;;;;;;5016074;28;20061;-66
2022/01/11 10:45:51;;;;;;;33.35;6.85;;;7.90;99.90;;;;;;5008641;28;20050;-68
2022/01/11 10:48:25;;;;;;;44.08;9.23;;;8.00;99.90;;;;;;5026311;28;20045;-65
2022/01/11 10:51:01;;;;;;;31.77;6.95;;;8.10;99.90;;;;;;5027381;28;20057;-66
2022/01/11 10:53:38;;;;;;;29.52;7.35;;;8.20;99.90;;;;;;5062863;28;20049;-65
2022/01/11 10:56:08;;;;;;;36.40;6.95;;;8.30;99.90;;;;;;5063297;28;20041;-65
2022/01/11 10:59:07;;;;;;;29.13;5.43;;;8.40;99.90;;;;;;5029548;28;20049;-66
2022/01/11 11:01:35;;;;;;;29.63;5.25;;;8.50;99.90;;;;;;5029506;28;20404;-65
2022/01/11 11:04:05;;;;;;;26.60;5.45;;;8.50;99.90;;;;;;5029455;28;20052;-65
2022/01/11 11:06:35;;;;;;;27.85;5.70;;;8.60;99.90;;;;;;5013511;28;20057;-65
2022/01/11 11:09:16;;;;;;;31.95;5.38;;;8.60;99.90;;;;;;5029401;28;20393;-66
2022/01/11 11:12:19;;;;;;;28.88;6.65;;;8.60;99.90;;;;;;5028957;28;20048;-67
2022/01/11 11:15:05;;;;;;;37.83;6.50;;;8.70;99.90;;;;;;5009971;28;20045;-66
2022/01/11 11:17:40;;;;;;;37.70;5.45;;;8.70;99.90;;;;;;5023244;28;20064;-65
2022/01/11 11:20:37;;;;;;;24.23;4.68;;;8.70;99.90;;;;;;5028845;28;20065;-65
2022/01/11 11:23:06;;;;;;;28.92;5.72;;;8.70;99.90;;;;;;5019318;28;20041;-69
2022/01/11 11:25:34;;;;;;;31.55;5.55;;;8.80;99.90;;;;;;5030334;28;20072;-66
2022/01/11 11:28:02;;;;;;;29.05;4.13;;;8.80;99.90;;;;;;5024680;28;20070;-66
2022/01/11 11:30:30;;;;;;;23.95;4.03;;;8.90;99.90;;;;;;5010755;28;20046;-69
2022/01/11 11:32:58;;;;;;;37.35;6.10;;;8.90;99.90;;;;;;5011838;28;20049;-66
2022/01/11 11:35:27;;;;;;;29.88;3.55;;;8.90;99.90;;;;;;5030167;28;20052;-68
2022/01/11 11:38:09;;;;;;;28.08;3.85;;;8.90;99.90;;;;;;5029713;28;20049;-66
2022/01/11 11:40:38;;;;;;;43.42;5.72;;;8.80;99.90;;;;;;5030315;28;20393;-66
2022/01/11 11:43:06;;;;;;;27.92;5.45;;;8.80;99.90;;;;;;5024832;28;20041;-67
2022/01/11 11:45:38;;;;;;;25.85;5.10;;;8.80;99.90;;;;;;5010514;28;20409;-64
2022/01/11 11:48:06;;;;;;;;;;;8.70;99.90;;;;;;5017753;28;20045;-65
2022/01/11 11:50:46;;;;;;;26.73;4.07;;;8.70;99.90;;;;;;5011802;28;19925;-65
2022/01/11 11:53:26;;;;;;;25.63;4.97;;;8.70;99.90;;;;;;5023998;28;20057;-64
2022/01/11 11:56:25;;;;;;;27.05;5.00;;;8.70;99.90;;;;;;5009769;28;20065;-64
2022/01/11 11:58:56;;;;;;;30.38;4.55;;;8.70;99.90;;;;;;5012228;28;20038;-64
2022/01/11 12:01:46;;;;;;;29.95;6.20;;;8.60;99.90;;;;;;5007706;28;20054;-65
2022/01/11 12:04:15;;;;;;;;;;;8.60;99.90;;;;;;5024463;28;20423;-64
2022/01/11 12:06:44;;;;;;;31.25;6.28;;;8.60;99.90;;;;;;5026182;28;19929;-63
2022/01/11 12:09:18;;;;;;;29.30;5.22;;;8.60;99.90;;;;;;5029163;28;20060;-64
2022/01/11 12:11:48;;;;;;;26.88;5.22;;;8.60;99.90;;;;;;5029602;28;20042;-64
2022/01/11 12:14:34;;;;;;;25.70;4.90;;;8.60;99.90;;;;;;5015676;28;20137;-64
2022/01/11 12:17:16;;;;;;;20.38;3.83;;;8.60;99.90;;;;;;5009724;28;20206;-65
2022/01/11 12:19:49;;;;;;;26.33;4.32;;;8.60;99.90;;;;;;5020024;28;20064;-65
2022/01/11 12:22:25;;;;;;;19.60;4.03;;;8.60;99.90;;;;;;5027706;28;20053;-65
2022/01/11 12:24:56;;;;;;;20.27;4.07;;;8.50;99.90;;;;;;5029605;28;20045;-65
2022/01/11 12:27:25;;;;;;;20.00;3.63;;;8.50;99.90;;;;;;5028964;28;20042;-64
2022/01/11 12:30:01;;;;;;;25.80;3.65;;;8.60;99.90;;;;;;5017268;28;20061;-63
2022/01/11 12:32:32;;;;;;;18.63;3.22;;;8.60;99.90;;;;;;5027832;28;20041;-64
2022/01/11 12:35:04;;;;;;;17.95;3.58;;;8.60;99.90;;;;;;5028971;28;20049;-64
2022/01/11 12:37:34;;;;;;;19.35;3.15;;;8.60;99.90;;;;;;5028915;28;20037;-63
2022/01/11 12:40:12;;;;;;;38.35;4.40;;;8.50;99.90;;;;;;5028907;28;20056;-64
2022/01/11 12:42:54;;;;;;;18.20;3.22;;;8.50;99.90;;;;;;5027110;28;20053;-65
2022/01/11 12:45:58;;;;;;;26.38;4.07;;;8.50;99.90;;;;;;5009399;28;20068;-67
2022/01/11 12:48:54;;;;;;;22.25;4.45;;;8.50;99.90;;;;;;5020810;28;20050;-64
2022/01/11 12:51:28;;;;;;;22.83;4.45;;;8.40;99.90;;;;;;5004614;28;20529;-66
2022/01/11 12:54:10;;;;;;;24.30;4.43;;;8.40;99.90;;;;;;5023845;28;20045;-68
2022/01/11 12:56:40;;;;;;;26.52;3.90;;;8.40;99.90;;;;;;5028666;28;20052;-64
2022/01/11 12:59:08;;;;;;;19.00;3.40;;;8.30;99.90;;;;;;5028006;28;20050;-65
2022/01/11 13:01:35;;;;;;;17.98;3.88;;;8.30;99.90;;;;;;5019155;28;20485;-64
2022/01/11 13:04:04;;;;;;;20.23;3.63;;;8.30;99.90;;;;;;5027742;28;20069;-68
2022/01/11 13:06:39;;;;;;;15.25;3.30;;;8.20;99.90;;;;;;5027454;28;20049;-66
2022/01/11 13:09:11;;;;;;;13.15;2.67;;;8.20;99.90;;;;;;5026402;28;20041;-67
2022/01/11 13:11:48;;;;;;;17.20;3.80;;;8.20;99.90;;;;;;5028293;28;20049;-65
2022/01/11 13:14:31;;;;;;;24.45;3.45;;;8.20;99.90;;;;;;5026668;28;20041;-68
2022/01/11 13:17:01;;;;;;;18.52;3.28;;;8.10;99.90;;;;;;5008952;28;20061;-64
2022/01/11 13:19:33;;;;;;;;;;;8.10;99.90;;;;;;5020707;28;20053;-66
2022/01/11 13:22:07;;;;;;;19.02;3.03;;;8.10;99.90;;;;;;5015405;28;20396;-65
2022/01/11 13:24:36;;;;;;;18.55;3.53;;;8.10;99.90;;;;;;5034951;28;20049;-63
2022/01/11 13:27:08;;;;;;;26.20;3.57;;;8.10;99.90;;;;;;5008656;28;20056;-64
2022/01/11 13:29:38;;;;;;;19.45;3.60;;;8.10;99.90;;;;;;5026681;28;20342;-64
2022/01/11 13:32:07;;;;;;;16.42;3.35;;;8.10;99.90;;;;;;5031028;28;20041;-68
2022/01/11 13:34:36;;;;;;;27.77;4.35;;;8.10;99.90;;;;;;5018860;28;20062;-69
2022/01/11 13:37:04;;;;;;;30.98;4.65;;;8.20;99.90;;;;;;5026008;28;20485;-73
2022/01/11 13:39:37;;;;;;;24.02;4.63;;;8.20;99.90;;;;;;5027847;28;20046;-68
2022/01/11 13:42:08;;;;;;;18.23;4.57;;;8.30;99.90;;;;;;5027858;28;20056;-64
2022/01/11 13:44:43;;;;;;;23.95;4.60;;;8.30;99.90;;;;;;5014872;28;20049;-63
2022/01/11 13:47:19;;;;;;;30.70;3.72;;;8.40;99.90;;;;;;5008544;28;20046;-63
2022/01/11 13:49:52;;;;;;;21.40;4.47;;;8.40;99.90;;;;;;5019647;28;20053;-65
2022/01/11 13:52:24;;;;;;;17.98;4.13;;;8.40;99.90;;;;;;5027563;28;20045;-63
2022/01/11 13:54:58;;;;;;;25.92;4.60;;;8.40;99.90;;;;;;5028021;28;20077;-64
2022/01/11 13:57:30;;;;;;;13.85;3.50;;;8.40;99.90;;;;;;5027840;28;20060;-66
2022/01/11 14:00:13;;;;;;;24.10;3.88;;;8.40;99.90;;;;;;5024085;28;20061;-65
2022/01/11 14:02:45;;;;;;;19.58;4.35;;;8.40;99.90;;;;;;5012971;28;20524;-64
2022/01/11 14:05:16;;;;;;;21.77;3.47;;;8.30;99.90;;;;;;5024562;28;20068;-64
2022/01/11 14:07:58;;;;;;;22.58;4.13;;;8.30;99.90;;;;;;5023054;28;20476;-65
2022/01/11 14:10:28;;;;;;;14.18;3.83;;;8.30;99.90;;;;;;5025764;28;20053;-67
2022/01/11 14:12:56;;;;;;;18.70;3.63;;;8.30;99.90;;;;;;5027437;28;20132;-65